Time,TemperatureF,DewpointF,PressureIn,WindDirection,WindDirectionDegrees,WindSpeedMPH,WindSpeedGustMPH,Humidity,HourlyPrecipIn,Conditions,Clouds,dailyrainin,SoftwareType,DateUTC
2013-01-05 00:12:00,26.3,17.0,30.44,NNE,15,4.0,17.0,67,0.00,,,0.00,weatherlink.com 1.10,2013-01-05 05:12:00,
2013-01-05 00:27:00,26.0,17.0,30.45,NW,319,5.0,16.0,69,0.00,,,0.00,weatherlink.com 1.10,2013-01-05 05:27:00,
2013-01-05 00:42:00,25.7,18.0,30.45,NNE,27,3.0,21.0,72,0.00,,,0.00,weatherlink.com 1.10,2013-01-05 05:42:00,
2013-01-05 00:57:00,25.3,18.0,30.43,NNE,24,6.0,17.0,75,0.00,,,0.00,weatherlink.com 1.10,2013-01-05 05:57:00,
2013-01-05 01:28:00,25.4,18.0,30.43,NNW,345,8.0,16.0,74,0.00,,,0.00,weatherlink.com 1.10,2013-01-05 06:28:00,
2013-01-05 01:43:00,25.4,18.0,30.45,NNE,13,5.0,19.0,72,0.00,,,0.00,weatherlink.com 1.10,2013-01-05 06:43:00,
2013-01-05 01:58:00,25.6,18.0,30.47,NNW,340,5.0,18.0,72,0.00,,,0.00,weatherlink.com 1.10,2013-01-05 06:58:00,
2013-01-05 02:13:00,25.4,18.0,30.48,NW,307,14.0,18.0,74,0.00,,,0.00,weatherlink.com 1.10,2013-01-05 07:13:00,
2013-01-05 02:28:00,25.1,19.0,30.46,NNW,340,14.0,23.0,76,0.00,,,0.00,weatherlink.com 1.10,2013-01-05 07:28:00,
2013-01-05 02:43:00,25.1,19.0,30.47,NNE,24,13.0,22.0,76,0.00,,,0.00,weatherlink.com 1.10,2013-01-05 07:43:00,
2013-01-05 02:58:00,25.1,18.0,30.48,NNE,19,16.0,21.0,75,0.00,,,0.00,weatherlink.com 1.10,2013-01-05 07:58:00,
2013-01-05 03:13:00,25.2,18.0,30.47,North,360,14.0,25.0,75,0.00,,,0.00,weatherlink.com 1.10,2013-01-05 08:13:00,
2013-01-05 03:28:00,24.7,18.0,30.46,North,360,11.0,20.0,76,0.00,,,0.00,weatherlink.com 1.10,2013-01-05 08:28:00,
2013-01-05 03:43:00,24.4,18.0,30.46,North,5,15.0,22.0,78,0.00,,,0.00,weatherlink.com 1.10,2013-01-05 08:43:00,
2013-01-05 03:58:00,24.3,18.0,30.50,North,11,8.0,17.0,78,0.00,,,0.00,weatherlink.com 1.10,2013-01-05 08:58:00,
2013-01-05 04:13:00,24.4,18.0,30.50,North,355,11.0,17.0,78,0.00,,,0.00,weatherlink.com 1.10,2013-01-05 09:13:00,
2013-01-05 04:28:00,24.1,19.0,30.48,North,11,14.0,16.0,79,0.00,,,0.00,weatherlink.com 1.10,2013-01-05 09:28:00,
2013-01-05 04:43:00,23.9,18.0,30.48,NNE,13,9.0,18.0,79,0.00,,,0.00,weatherlink.com 1.10,2013-01-05 09:43:00,
2013-01-05 04:58:00,23.9,19.0,30.49,North,355,14.0,17.0,80,0.00,,,0.00,weatherlink.com 1.10,2013-01-05 09:58:00,
2013-01-05 05:13:00,23.7,18.0,30.50,North,5,12.0,16.0,80,0.00,,,0.00,weatherlink.com 1.10,2013-01-05 10:13:00,
2013-01-05 05:28:00,23.8,18.0,30.50,North,5,13.0,17.0,79,0.00,,,0.00,weatherlink.com 1.10,2013-01-05 10:28:00,
2013-01-05 05:43:00,23.5,18.0,30.50,North,5,11.0,14.0,80,0.00,,,0.00,weatherlink.com 1.10,2013-01-05 10:43:00,
2013-01-05 05:58:00,23.3,18.0,30.51,North,360,12.0,15.0,81,0.00,,,0.00,weatherlink.com 1.10,2013-01-05 10:58:00,
2013-01-05 06:13:00,23.1,18.0,30.51,North,355,11.0,15.0,82,0.00,,,0.00,weatherlink.com 1.10,2013-01-05 11:13:00,
2013-01-05 06:28:00,23.1,18.0,30.52,North,360,11.0,17.0,82,0.00,,,0.00,weatherlink.com 1.10,2013-01-05 11:28:00,
2013-01-05 06:43:00,23.2,19.0,30.52,North,5,10.0,15.0,82,0.00,,,0.00,weatherlink.com 1.10,2013-01-05 11:43:00,
2013-01-05 06:58:00,23.1,18.0,30.52,NNE,16,12.0,14.0,82,0.00,,,0.00,weatherlink.com 1.10,2013-01-05 11:58:00,
2013-01-05 07:13:00,22.9,19.0,30.52,North,355,13.0,15.0,83,0.00,,,0.00,weatherlink.com 1.10,2013-01-05 12:13:00,
2013-01-05 07:28:00,23.1,18.0,30.53,North,360,9.0,14.0,82,0.00,,,0.00,weatherlink.com 1.10,2013-01-05 12:28:00,
2013-01-05 07:43:00,22.9,18.0,30.54,North,355,11.0,13.0,82,0.00,,,0.00,weatherlink.com 1.10,2013-01-05 12:43:00,
2013-01-05 07:58:00,23.1,18.0,30.55,North,351,10.0,13.0,82,0.00,,,0.00,weatherlink.com 1.10,2013-01-05 12:58:00,
2013-01-05 08:13:00,23.2,19.0,30.55,North,355,10.0,13.0,83,0.00,,,0.00,weatherlink.com 1.10,2013-01-05 13:13:00,
2013-01-05 08:28:00,23.9,19.0,30.55,North,11,10.0,13.0,81,0.00,,,0.00,weatherlink.com 1.10,2013-01-05 13:28:00,
2013-01-05 08:43:00,24.5,19.0,30.56,North,351,10.0,13.0,80,0.00,,,0.00,weatherlink.com 1.10,2013-01-05 13:43:00,
2013-01-05 08:58:00,25.7,19.0,30.57,North,5,9.0,12.0,77,0.00,,,0.00,weatherlink.com 1.10,2013-01-05 13:58:00,
2013-01-05 09:14:00,27.3,19.0,30.57,North,360,10.0,12.0,71,0.00,,,0.00,weatherlink.com 1.10,2013-01-05 14:14:00,
2013-01-05 09:29:00,27.9,19.0,30.56,NNE,17,9.0,12.0,70,0.00,,,0.00,weatherlink.com 1.10,2013-01-05 14:29:00,
2013-01-05 09:44:00,29.2,19.0,30.56,North,360,8.0,10.0,67,0.00,,,0.00,weatherlink.com 1.10,2013-01-05 14:44:00,
2013-01-05 09:59:00,30.4,19.0,30.57,North,355,6.0,10.0,63,0.00,,,0.00,weatherlink.com 1.10,2013-01-05 14:59:00,
2013-01-05 10:14:00,31.8,20.0,30.57,NNE,12,6.0,8.0,62,0.00,,,0.00,weatherlink.com 1.10,2013-01-05 15:14:00,
2013-01-05 10:30:00,33.9,20.0,30.57,North,355,7.0,7.0,56,0.00,,,0.00,weatherlink.com 1.10,2013-01-05 15:30:00,
2013-01-05 10:44:00,35.9,17.0,30.56,NNW,348,4.0,5.0,46,0.00,,,0.00,weatherlink.com 1.10,2013-01-05 15:44:00,
2013-01-05 10:59:00,40.0,17.0,30.55,SE,145,2.0,5.0,39,0.00,,,0.00,weatherlink.com 1.10,2013-01-05 15:59:00,
2013-01-05 11:14:00,42.7,18.0,30.55,SE,136,3.0,7.0,37,0.00,,,0.00,weatherlink.com 1.10,2013-01-05 16:14:00,
2013-01-05 11:29:00,42.7,19.0,30.54,South,178,2.0,8.0,38,0.00,,,0.00,weatherlink.com 1.10,2013-01-05 16:29:00,
2013-01-05 11:44:00,42.0,18.0,30.53,SSW,192,3.0,9.0,38,0.00,,,0.00,weatherlink.com 1.10,2013-01-05 16:44:00,
2013-01-05 11:59:00,41.3,17.0,30.52,South,190,5.0,10.0,38,0.00,,,0.00,weatherlink.com 1.10,2013-01-05 16:59:00,
2013-01-05 12:14:00,41.3,16.0,30.51,SE,136,2.0,6.0,36,0.00,,,0.00,weatherlink.com 1.10,2013-01-05 17:14:00,
2013-01-05 12:29:00,42.3,17.0,30.50,SSW,196,2.0,7.0,36,0.00,,,0.00,weatherlink.com 1.10,2013-01-05 17:29:00,
2013-01-05 12:44:00,43.3,17.0,30.49,SSE,151,4.0,9.0,34,0.00,,,0.00,weatherlink.com 1.10,2013-01-05 17:44:00,
2013-01-05 12:59:00,42.8,15.0,30.49,SSE,157,5.0,7.0,32,0.00,,,0.00,weatherlink.com 1.10,2013-01-05 17:59:00,
2013-01-05 13:14:00,42.9,17.0,30.48,ESE,118,3.0,8.0,35,0.00,,,0.00,weatherlink.com 1.10,2013-01-05 18:14:00,
2013-01-05 13:29:00,43.9,18.0,30.48,South,176,3.0,10.0,35,0.00,,,0.00,weatherlink.com 1.10,2013-01-05 18:29:00,
2013-01-05 13:44:00,43.6,17.0,30.48,SSE,160,3.0,9.0,35,0.00,,,0.00,weatherlink.com 1.10,2013-01-05 18:44:00,
2013-01-05 13:59:00,43.5,18.0,30.48,SE,146,6.0,9.0,36,0.00,,,0.00,weatherlink.com 1.10,2013-01-05 18:59:00,
2013-01-05 14:14:00,42.8,18.0,30.48,South,179,6.0,8.0,37,0.00,,,0.00,weatherlink.com 1.10,2013-01-05 19:14:00,
2013-01-05 14:29:00,43.0,19.0,30.47,SSW,192,4.0,8.0,39,0.00,,,0.00,weatherlink.com 1.10,2013-01-05 19:29:00,
2013-01-05 14:44:00,42.8,19.0,30.46,South,171,4.0,7.0,39,0.00,,,0.00,weatherlink.com 1.10,2013-01-05 19:44:00,
2013-01-05 14:59:00,42.9,19.0,30.46,SSE,160,5.0,9.0,39,0.00,,,0.00,weatherlink.com 1.10,2013-01-05 19:59:00,
2013-01-05 15:14:00,43.6,19.0,30.46,South,171,3.0,9.0,38,0.00,,,0.00,weatherlink.com 1.10,2013-01-05 20:14:00,
2013-01-05 15:29:00,42.3,19.0,30.47,SSE,152,3.0,8.0,40,0.00,,,0.00,weatherlink.com 1.10,2013-01-05 20:29:00,
2013-01-05 15:44:00,41.6,20.0,30.46,SSE,167,3.0,9.0,42,0.00,,,0.00,weatherlink.com 1.10,2013-01-05 20:44:00,
2013-01-05 15:59:00,41.0,19.0,30.47,South,186,7.0,11.0,42,0.00,,,0.00,weatherlink.com 1.10,2013-01-05 20:59:00,
2013-01-05 16:15:00,39.9,19.0,30.45,SSW,193,5.0,9.0,43,0.00,,,0.00,weatherlink.com 1.10,2013-01-05 21:15:00,
2013-01-05 16:30:00,39.4,20.0,30.45,South,181,3.0,5.0,46,0.00,,,0.00,weatherlink.com 1.10,2013-01-05 21:30:00,
2013-01-05 16:45:00,38.5,20.0,30.45,South,180,5.0,8.0,47,0.00,,,0.00,weatherlink.com 1.10,2013-01-05 21:45:00,
2013-01-05 17:00:00,37.7,20.0,30.45,South,185,4.0,7.0,49,0.00,,,0.00,weatherlink.com 1.10,2013-01-05 22:00:00,
2013-01-05 17:15:00,37.0,20.0,30.45,SSE,164,3.0,9.0,51,0.00,,,0.00,weatherlink.com 1.10,2013-01-05 22:15:00,
2013-01-05 17:30:00,36.6,21.0,30.46,SSW,211,8.0,8.0,54,0.00,,,0.00,weatherlink.com 1.10,2013-01-05 22:30:00,
2013-01-05 17:45:00,36.5,21.0,30.45,SSE,167,3.0,7.0,54,0.00,,,0.00,weatherlink.com 1.10,2013-01-05 22:45:00,
2013-01-05 18:00:00,36.5,21.0,30.46,South,182,3.0,6.0,54,0.00,,,0.00,weatherlink.com 1.10,2013-01-05 23:00:00,
2013-01-05 18:15:00,36.5,22.0,30.45,South,177,1.0,5.0,55,0.00,,,0.00,weatherlink.com 1.10,2013-01-05 23:15:00,
2013-01-05 18:30:00,36.4,21.0,30.45,SSE,162,3.0,7.0,55,0.00,,,0.00,weatherlink.com 1.10,2013-01-05 23:30:00,
2013-01-05 18:45:00,36.3,22.0,30.45,South,184,3.0,6.0,56,0.00,,,0.00,weatherlink.com 1.10,2013-01-05 23:45:00,
2013-01-05 19:00:00,36.1,22.0,30.45,South,171,4.0,7.0,57,0.00,,,0.00,weatherlink.com 1.10,2013-01-06 00:00:00,
2013-01-05 19:15:00,35.9,22.0,30.45,South,179,1.0,5.0,58,0.00,,,0.00,weatherlink.com 1.10,2013-01-06 00:15:00,
2013-01-05 19:30:00,35.5,24.0,30.45,South,175,1.0,6.0,63,0.00,,,0.00,weatherlink.com 1.10,2013-01-06 00:30:00,
2013-01-05 19:45:00,35.0,25.0,30.46,South,182,2.0,6.0,67,0.00,,,0.00,weatherlink.com 1.10,2013-01-06 00:45:00,
2013-01-05 20:15:00,34.8,24.0,30.44,SSE,159,1.0,2.0,65,0.00,,,0.00,weatherlink.com 1.10,2013-01-06 01:15:00,
2013-01-05 20:30:00,34.6,25.0,30.44,South,175,2.0,5.0,67,0.00,,,0.00,weatherlink.com 1.10,2013-01-06 01:30:00,
2013-01-05 20:45:00,34.2,24.0,30.43,South,173,2.0,6.0,66,0.00,,,0.00,weatherlink.com 1.10,2013-01-06 01:45:00,
2013-01-05 21:00:00,34.0,24.0,30.44,SSE,160,3.0,4.0,67,0.00,,,0.00,weatherlink.com 1.10,2013-01-06 02:00:00,
2013-01-05 21:15:00,33.8,24.0,30.45,South,169,0.0,4.0,68,0.00,,,0.00,weatherlink.com 1.10,2013-01-06 02:15:00,
2013-01-05 21:30:00,33.8,24.0,30.45,NNE,13,1.0,4.0,68,0.00,,,0.00,weatherlink.com 1.10,2013-01-06 02:30:00,
2013-01-05 21:45:00,34.0,24.0,30.44,NNE,13,0.0,0.0,67,0.00,,,0.00,weatherlink.com 1.10,2013-01-06 02:45:00,
2013-01-05 22:00:00,34.5,24.0,30.44,NNE,13,1.0,3.0,66,0.00,,,0.00,weatherlink.com 1.10,2013-01-06 03:00:00,
2013-01-05 22:15:00,35.2,22.0,30.43,ESE,120,2.0,3.0,60,0.00,,,0.00,weatherlink.com 1.10,2013-01-06 03:15:00,
2013-01-05 22:30:00,34.5,24.0,30.43,East,98,1.0,5.0,66,0.00,,,0.00,weatherlink.com 1.10,2013-01-06 03:30:00,
2013-01-05 22:45:00,34.5,23.0,30.41,SE,134,4.0,6.0,63,0.00,,,0.00,weatherlink.com 1.10,2013-01-06 03:45:00,
2013-01-05 23:00:00,34.5,25.0,30.41,NNE,19,2.0,6.0,68,0.00,,,0.00,weatherlink.com 1.10,2013-01-06 04:00:00,
2013-01-05 23:15:00,33.9,25.0,30.39,North,355,6.0,8.0,70,0.00,,,0.00,weatherlink.com 1.10,2013-01-06 04:15:00,
2013-01-05 23:30:00,33.5,26.0,30.39,North,355,4.0,7.0,75,0.00,,,0.00,weatherlink.com 1.10,2013-01-06 04:30:00,
2013-01-05 23:45:00,33.7,26.0,30.39,North,349,7.0,10.0,73,0.00,,,0.00,weatherlink.com 1.10,2013-01-06 04:45:00,